sensor_id;sensor_type;location;lat;lon;timestamp;P1;durP1;ratioP1;P2;durP2;ratioP2
8297;SDS011;4187;42.778;23.242;2023-07-30T00:01:45;4.25;;;3.20;;
8297;SDS011;4187;42.778;23.242;2023-07-30T00:04:12;3.42;;;2.83;;
8297;SDS011;4187;42.778;23.242;2023-07-30T00:06:38;3.35;;;3.03;;
8297;SDS011;4187;42.778;23.242;2023-07-30T00:09:05;3.30;;;2.97;;
8297;SDS011;4187;42.778;23.242;2023-07-30T00:11:31;4.40;;;3.13;;
8297;SDS011;4187;42.778;23.242;2023-07-30T00:13:58;4.80;;;3.03;;
8297;SDS011;4187;42.778;23.242;2023-07-30T00:16:26;3.25;;;2.95;;
8297;SDS011;4187;42.778;23.242;2023-07-30T00:18:53;3.38;;;3.08;;
8297;SDS011;4187;42.778;23.242;2023-07-30T00:21:19;3.47;;;3.00;;
8297;SDS011;4187;42.778;23.242;2023-07-30T00:23:46;4.22;;;2.88;;
8297;SDS011;4187;42.778;23.242;2023-07-30T00:26:12;3.63;;;3.20;;
8297;SDS011;4187;42.778;23.242;2023-07-30T00:28:39;2.80;;;2.55;;
8297;SDS011;4187;42.778;23.242;2023-07-30T00:31:05;4.00;;;3.00;;
8297;SDS011;4187;42.778;23.242;2023-07-30T00:33:33;3.70;;;2.83;;
8297;SDS011;4187;42.778;23.242;2023-07-30T00:36:00;3.90;;;2.85;;
8297;SDS011;4187;42.778;23.242;2023-07-30T00:38:26;3.30;;;3.00;;
8297;SDS011;4187;42.778;23.242;2023-07-30T00:40:53;4.03;;;3.00;;
8297;SDS011;4187;42.778;23.242;2023-07-30T00:43:20;4.10;;;2.92;;
8297;SDS011;4187;42.778;23.242;2023-07-30T00:45:47;4.60;;;2.65;;
8297;SDS011;4187;42.778;23.242;2023-07-30T00:48:14;3.80;;;2.80;;
8297;SDS011;4187;42.778;23.242;2023-07-30T00:50:42;3.67;;;3.33;;
8297;SDS011;4187;42.778;23.242;2023-07-30T00:53:09;4.15;;;3.28;;
8297;SDS011;4187;42.778;23.242;2023-07-30T00:55:36;3.25;;;2.90;;
8297;SDS011;4187;42.778;23.242;2023-07-30T00:58:03;6.13;;;3.10;;
8297;SDS011;4187;42.778;23.242;2023-07-30T01:00:30;3.17;;;2.83;;
8297;SDS011;4187;42.778;23.242;2023-07-30T01:02:57;4.50;;;2.80;;
8297;SDS011;4187;42.778;23.242;2023-07-30T01:05:23;3.75;;;3.45;;
8297;SDS011;4187;42.778;23.242;2023-07-30T01:07:51;4.93;;;3.20;;
8297;SDS011;4187;42.778;23.242;2023-07-30T01:10:18;2.90;;;2.70;;
8297;SDS011;4187;42.778;23.242;2023-07-30T01:12:45;3.28;;;2.95;;
8297;SDS011;4187;42.778;23.242;2023-07-30T01:15:11;4.72;;;3.03;;
8297;SDS011;4187;42.778;23.242;2023-07-30T01:17:38;3.28;;;2.97;;
8297;SDS011;4187;42.778;23.242;2023-07-30T01:20:06;3.25;;;2.90;;
8297;SDS011;4187;42.778;23.242;2023-07-30T01:22:34;2.70;;;2.33;;
8297;SDS011;4187;42.778;23.242;2023-07-30T01:25:00;3.20;;;2.70;;
8297;SDS011;4187;42.778;23.242;2023-07-30T01:27:28;3.60;;;3.28;;
8297;SDS011;4187;42.778;23.242;2023-07-30T01:29:58;4.35;;;2.75;;
8297;SDS011;4187;42.778;23.242;2023-07-30T01:32:26;3.10;;;2.80;;
8297;SDS011;4187;42.778;23.242;2023-07-30T01:34:53;3.35;;;3.03;;
8297;SDS011;4187;42.778;23.242;2023-07-30T01:37:20;3.63;;;3.30;;
8297;SDS011;4187;42.778;23.242;2023-07-30T01:39:49;5.30;;;2.90;;
8297;SDS011;4187;42.778;23.242;2023-07-30T01:42:15;3.95;;;3.10;;
8297;SDS011;4187;42.778;23.242;2023-07-30T01:44:42;4.68;;;3.00;;
8297;SDS011;4187;42.778;23.242;2023-07-30T01:47:09;3.50;;;3.17;;
8297;SDS011;4187;42.778;23.242;2023-07-30T01:49:35;3.53;;;3.22;;
8297;SDS011;4187;42.778;23.242;2023-07-30T01:52:02;4.13;;;3.15;;
8297;SDS011;4187;42.778;23.242;2023-07-30T01:54:28;3.83;;;3.30;;
8297;SDS011;4187;42.778;23.242;2023-07-30T01:56:57;6.13;;;3.00;;
8297;SDS011;4187;42.778;23.242;2023-07-30T01:59:24;4.82;;;3.38;;
8297;SDS011;4187;42.778;23.242;2023-07-30T02:01:50;4.20;;;3.70;;
8297;SDS011;4187;42.778;23.242;2023-07-30T02:04:17;3.70;;;3.40;;
8297;SDS011;4187;42.778;23.242;2023-07-30T02:06:43;4.07;;;3.53;;
8297;SDS011;4187;42.778;23.242;2023-07-30T02:09:10;4.30;;;3.42;;
8297;SDS011;4187;42.778;23.242;2023-07-30T02:11:36;3.90;;;3.60;;
8297;SDS011;4187;42.778;23.242;2023-07-30T02:14:04;3.60;;;3.30;;
8297;SDS011;4187;42.778;23.242;2023-07-30T02:16:31;3.92;;;3.42;;
8297;SDS011;4187;42.778;23.242;2023-07-30T02:18:57;3.83;;;3.13;;
8297;SDS011;4187;42.778;23.242;2023-07-30T02:21:24;3.63;;;3.30;;
8297;SDS011;4187;42.778;23.242;2023-07-30T02:23:50;3.50;;;3.20;;
8297;SDS011;4187;42.778;23.242;2023-07-30T02:26:17;3.80;;;3.40;;
8297;SDS011;4187;42.778;23.242;2023-07-30T02:28:43;5.97;;;3.20;;
8297;SDS011;4187;42.778;23.242;2023-07-30T02:31:11;6.72;;;3.75;;
8297;SDS011;4187;42.778;23.242;2023-07-30T02:33:37;5.38;;;3.40;;
8297;SDS011;4187;42.778;23.242;2023-07-30T02:36:04;5.13;;;3.13;;
8297;SDS011;4187;42.778;23.242;2023-07-30T02:38:30;6.28;;;3.00;;
8297;SDS011;4187;42.778;23.242;2023-07-30T02:40:57;3.92;;;2.67;;
8297;SDS011;4187;42.778;23.242;2023-07-30T02:43:23;4.15;;;3.63;;
8297;SDS011;4187;42.778;23.242;2023-07-30T02:45:50;4.50;;;3.28;;
8297;SDS011;4187;42.778;23.242;2023-07-30T02:48:18;5.68;;;3.20;;
8297;SDS011;4187;42.778;23.242;2023-07-30T02:50:44;4.45;;;3.67;;
8297;SDS011;4187;42.778;23.242;2023-07-30T02:53:11;8.88;;;3.28;;
8297;SDS011;4187;42.778;23.242;2023-07-30T02:55:38;3.45;;;3.15;;
8297;SDS011;4187;42.778;23.242;2023-07-30T02:58:05;4.07;;;3.67;;
8297;SDS011;4187;42.778;23.242;2023-07-30T03:00:32;4.38;;;3.60;;
8297;SDS011;4187;42.778;23.242;2023-07-30T03:02:58;5.53;;;3.55;;
8297;SDS011;4187;42.778;23.242;2023-07-30T03:05:27;4.55;;;3.60;;
8297;SDS011;4187;42.778;23.242;2023-07-30T03:07:53;6.88;;;3.53;;
8297;SDS011;4187;42.778;23.242;2023-07-30T03:10:20;3.90;;;3.53;;
8297;SDS011;4187;42.778;23.242;2023-07-30T03:12:46;4.18;;;3.78;;
8297;SDS011;4187;42.778;23.242;2023-07-30T03:15:13;3.50;;;3.20;;
8297;SDS011;4187;42.778;23.242;2023-07-30T03:17:40;3.92;;;3.63;;
8297;SDS011;4187;42.778;23.242;2023-07-30T03:20:07;3.67;;;3.33;;
8297;SDS011;4187;42.778;23.242;2023-07-30T03:22:35;4.80;;;3.70;;
8297;SDS011;4187;42.778;23.242;2023-07-30T03:25:02;3.97;;;3.50;;
8297;SDS011;4187;42.778;23.242;2023-07-30T03:27:29;4.15;;;3.40;;
8297;SDS011;4187;42.778;23.242;2023-07-30T03:29:55;4.78;;;3.40;;
8297;SDS011;4187;42.778;23.242;2023-07-30T03:32:22;3.58;;;3.20;;
8297;SDS011;4187;42.778;23.242;2023-07-30T03:34:48;4.47;;;3.80;;
8297;SDS011;4187;42.778;23.242;2023-07-30T03:37:15;4.55;;;4.03;;
8297;SDS011;4187;42.778;23.242;2023-07-30T03:39:42;9.02;;;4.47;;
8297;SDS011;4187;42.778;23.242;2023-07-30T03:42:09;7.22;;;4.60;;
8297;SDS011;4187;42.778;23.242;2023-07-30T03:44:36;4.82;;;4.32;;
8297;SDS011;4187;42.778;23.242;2023-07-30T03:47:02;9.73;;;4.75;;
8297;SDS011;4187;42.778;23.242;2023-07-30T03:49:29;7.35;;;4.68;;
8297;SDS011;4187;42.778;23.242;2023-07-30T03:51:55;8.07;;;4.47;;
8297;SDS011;4187;42.778;23.242;2023-07-30T03:54:22;5.22;;;4.72;;
8297;SDS011;4187;42.778;23.242;2023-07-30T03:56:50;5.60;;;4.82;;
8297;SDS011;4187;42.778;23.242;2023-07-30T03:59:16;5.13;;;4.13;;
8297;SDS011;4187;42.778;23.242;2023-07-30T04:01:43;4.88;;;4.32;;
8297;SDS011;4187;42.778;23.242;2023-07-30T04:04:09;3.88;;;3.58;;
8297;SDS011;4187;42.778;23.242;2023-07-30T04:06:36;4.20;;;3.80;;
8297;SDS011;4187;42.778;23.242;2023-07-30T04:09:02;7.95;;;4.40;;
8297;SDS011;4187;42.778;23.242;2023-07-30T04:11:29;4.65;;;4.05;;
8297;SDS011;4187;42.778;23.242;2023-07-30T04:13:57;4.00;;;3.70;;
8297;SDS011;4187;42.778;23.242;2023-07-30T04:16:23;3.67;;;3.33;;
8297;SDS011;4187;42.778;23.242;2023-07-30T04:18:50;4.88;;;3.67;;
8297;SDS011;4187;42.778;23.242;2023-07-30T04:21:16;6.43;;;4.07;;
8297;SDS011;4187;42.778;23.242;2023-07-30T04:23:43;5.55;;;3.15;;
8297;SDS011;4187;42.778;23.242;2023-07-30T04:26:09;7.60;;;3.50;;
8297;SDS011;4187;42.778;23.242;2023-07-30T04:28:36;5.00;;;3.75;;
8297;SDS011;4187;42.778;23.242;2023-07-30T04:31:04;6.85;;;3.38;;
8297;SDS011;4187;42.778;23.242;2023-07-30T04:33:30;9.80;;;3.63;;
8297;SDS011;4187;42.778;23.242;2023-07-30T04:35:57;6.50;;;3.75;;
8297;SDS011;4187;42.778;23.242;2023-07-30T04:38:23;9.40;;;4.53;;
8297;SDS011;4187;42.778;23.242;2023-07-30T04:40:50;4.97;;;4.15;;
8297;SDS011;4187;42.778;23.242;2023-07-30T04:43:16;5.60;;;4.65;;
8297;SDS011;4187;42.778;23.242;2023-07-30T04:45:43;7.50;;;4.53;;
8297;SDS011;4187;42.778;23.242;2023-07-30T04:48:11;5.35;;;3.60;;
8297;SDS011;4187;42.778;23.242;2023-07-30T04:50:37;7.57;;;3.63;;
8297;SDS011;4187;42.778;23.242;2023-07-30T04:53:07;7.60;;;3.65;;
8297;SDS011;4187;42.778;23.242;2023-07-30T04:55:33;6.18;;;3.20;;
8297;SDS011;4187;42.778;23.242;2023-07-30T04:58:00;5.90;;;3.90;;
8297;SDS011;4187;42.778;23.242;2023-07-30T05:00:27;7.65;;;3.97;;
8297;SDS011;4187;42.778;23.242;2023-07-30T05:02:54;6.95;;;3.75;;
8297;SDS011;4187;42.778;23.242;2023-07-30T05:05:21;7.57;;;3.80;;
8297;SDS011;4187;42.778;23.242;2023-07-30T05:07:48;6.60;;;3.65;;
8297;SDS011;4187;42.778;23.242;2023-07-30T05:10:14;10.23;;;3.80;;
8297;SDS011;4187;42.778;23.242;2023-07-30T05:12:41;15.77;;;3.95;;
8297;SDS011;4187;42.778;23.242;2023-07-30T05:15:08;16.52;;;3.92;;
8297;SDS011;4187;42.778;23.242;2023-07-30T05:17:34;19.20;;;4.60;;
8297;SDS011;4187;42.778;23.242;2023-07-30T05:20:01;15.32;;;4.60;;
8297;SDS011;4187;42.778;23.242;2023-07-30T05:22:29;16.27;;;5.20;;
8297;SDS011;4187;42.778;23.242;2023-07-30T05:24:55;18.30;;;4.40;;
8297;SDS011;4187;42.778;23.242;2023-07-30T05:27:23;15.38;;;4.00;;
8297;SDS011;4187;42.778;23.242;2023-07-30T05:29:49;10.85;;;4.30;;
8297;SDS011;4187;42.778;23.242;2023-07-30T05:32:16;11.30;;;3.45;;
8297;SDS011;4187;42.778;23.242;2023-07-30T05:34:42;6.25;;;3.28;;
8297;SDS011;4187;42.778;23.242;2023-07-30T05:37:09;8.52;;;3.75;;
8297;SDS011;4187;42.778;23.242;2023-07-30T05:39:37;4.38;;;3.47;;
8297;SDS011;4187;42.778;23.242;2023-07-30T05:42:03;8.80;;;3.65;;
8297;SDS011;4187;42.778;23.242;2023-07-30T05:44:30;6.80;;;3.55;;
8297;SDS011;4187;42.778;23.242;2023-07-30T05:46:56;6.47;;;3.80;;
8297;SDS011;4187;42.778;23.242;2023-07-30T05:49:23;7.88;;;3.83;;
8297;SDS011;4187;42.778;23.242;2023-07-30T05:51:49;3.92;;;3.53;;
8297;SDS011;4187;42.778;23.242;2023-07-30T05:54:16;4.35;;;3.95;;
8297;SDS011;4187;42.778;23.242;2023-07-30T05:56:44;3.90;;;3.60;;
8297;SDS011;4187;42.778;23.242;2023-07-30T05:59:10;4.47;;;3.90;;
8297;SDS011;4187;42.778;23.242;2023-07-30T06:01:38;4.00;;;3.60;;
8297;SDS011;4187;42.778;23.242;2023-07-30T06:04:04;4.68;;;3.85;;
8297;SDS011;4187;42.778;23.242;2023-07-30T06:06:31;10.00;;;3.70;;
8297;SDS011;4187;42.778;23.242;2023-07-30T06:08:57;10.70;;;3.97;;
8297;SDS011;4187;42.778;23.242;2023-07-30T06:11:24;10.95;;;3.70;;
8297;SDS011;4187;42.778;23.242;2023-07-30T06:13:52;6.43;;;4.25;;
8297;SDS011;4187;42.778;23.242;2023-07-30T06:16:20;11.23;;;3.83;;
8297;SDS011;4187;42.778;23.242;2023-07-30T06:18:47;11.00;;;4.10;;
8297;SDS011;4187;42.778;23.242;2023-07-30T06:21:14;6.55;;;3.97;;
8297;SDS011;4187;42.778;23.242;2023-07-30T06:23:40;8.48;;;3.97;;
8297;SDS011;4187;42.778;23.242;2023-07-30T06:26:07;6.25;;;3.72;;
8297;SDS011;4187;42.778;23.242;2023-07-30T06:28:33;5.25;;;3.90;;
8297;SDS011;4187;42.778;23.242;2023-07-30T06:31:01;6.50;;;3.88;;
8297;SDS011;4187;42.778;23.242;2023-07-30T06:33:28;5.93;;;4.45;;
8297;SDS011;4187;42.778;23.242;2023-07-30T06:35:55;29.00;;;7.75;;
8297;SDS011;4187;42.778;23.242;2023-07-30T06:38:21;8.40;;;4.18;;
8297;SDS011;4187;42.778;23.242;2023-07-30T06:40:48;9.13;;;4.22;;
8297;SDS011;4187;42.778;23.242;2023-07-30T06:43:14;7.35;;;4.53;;
8297;SDS011;4187;42.778;23.242;2023-07-30T06:45:41;5.72;;;3.90;;
8297;SDS011;4187;42.778;23.242;2023-07-30T06:48:09;5.97;;;4.00;;
8297;SDS011;4187;42.778;23.242;2023-07-30T06:50:35;4.40;;;3.75;;
8297;SDS011;4187;42.778;23.242;2023-07-30T06:53:02;5.50;;;3.58;;
8297;SDS011;4187;42.778;23.242;2023-07-30T06:55:28;6.25;;;3.20;;
8297;SDS011;4187;42.778;23.242;2023-07-30T06:57:55;4.22;;;3.83;;
8297;SDS011;4187;42.778;23.242;2023-07-30T07:00:21;6.40;;;4.00;;
8297;SDS011;4187;42.778;23.242;2023-07-30T07:02:48;5.90;;;3.80;;
8297;SDS011;4187;42.778;23.242;2023-07-30T07:05:16;4.80;;;3.50;;
8297;SDS011;4187;42.778;23.242;2023-07-30T07:07:43;3.90;;;3.53;;
8297;SDS011;4187;42.778;23.242;2023-07-30T07:10:09;3.67;;;3.38;;
8297;SDS011;4187;42.778;23.242;2023-07-30T07:12:36;5.30;;;3.40;;
8297;SDS011;4187;42.778;23.242;2023-07-30T07:15:04;3.40;;;3.10;;
8297;SDS011;4187;42.778;23.242;2023-07-30T07:17:30;5.32;;;3.40;;
8297;SDS011;4187;42.778;23.242;2023-07-30T07:19:57;3.83;;;3.50;;
8297;SDS011;4187;42.778;23.242;2023-07-30T07:22:25;4.30;;;3.28;;
8297;SDS011;4187;42.778;23.242;2023-07-30T07:24:51;4.45;;;3.35;;
8297;SDS011;4187;42.778;23.242;2023-07-30T07:27:18;5.68;;;3.33;;
8297;SDS011;4187;42.778;23.242;2023-07-30T07:29:45;4.63;;;3.25;;
8297;SDS011;4187;42.778;23.242;2023-07-30T07:32:12;3.85;;;3.20;;
8297;SDS011;4187;42.778;23.242;2023-07-30T07:34:38;3.53;;;3.22;;
8297;SDS011;4187;42.778;23.242;2023-07-30T07:37:05;4.00;;;3.35;;
8297;SDS011;4187;42.778;23.242;2023-07-30T07:39:33;3.45;;;3.10;;
8297;SDS011;4187;42.778;23.242;2023-07-30T07:42:00;5.53;;;3.00;;
8297;SDS011;4187;42.778;23.242;2023-07-30T07:44:26;6.82;;;3.70;;
8297;SDS011;4187;42.778;23.242;2023-07-30T07:46:53;5.38;;;3.60;;
8297;SDS011;4187;42.778;23.242;2023-07-30T07:49:19;3.80;;;3.50;;
8297;SDS011;4187;42.778;23.242;2023-07-30T07:51:46;5.20;;;3.55;;
8297;SDS011;4187;42.778;23.242;2023-07-30T07:54:12;5.05;;;3.80;;
8297;SDS011;4187;42.778;23.242;2023-07-30T07:56:40;4.78;;;3.60;;
8297;SDS011;4187;42.778;23.242;2023-07-30T07:59:07;3.47;;;3.17;;
8297;SDS011;4187;42.778;23.242;2023-07-30T08:01:33;6.05;;;3.10;;
8297;SDS011;4187;42.778;23.242;2023-07-30T08:04:00;4.55;;;3.72;;
8297;SDS011;4187;42.778;23.242;2023-07-30T08:06:26;3.50;;;3.20;;
8297;SDS011;4187;42.778;23.242;2023-07-30T08:08:53;3.67;;;3.20;;
8297;SDS011;4187;42.778;23.242;2023-07-30T08:11:19;3.50;;;3.20;;
8297;SDS011;4187;42.778;23.242;2023-07-30T08:13:47;3.35;;;3.05;;
8297;SDS011;4187;42.778;23.242;2023-07-30T08:16:14;6.03;;;3.38;;
8297;SDS011;4187;42.778;23.242;2023-07-30T08:18:40;4.70;;;3.45;;
8297;SDS011;4187;42.778;23.242;2023-07-30T08:21:07;5.43;;;3.15;;
8297;SDS011;4187;42.778;23.242;2023-07-30T08:23:33;4.53;;;3.78;;
8297;SDS011;4187;42.778;23.242;2023-07-30T08:26:00;4.20;;;3.42;;
8297;SDS011;4187;42.778;23.242;2023-07-30T08:28:26;5.28;;;3.95;;
8297;SDS011;4187;42.778;23.242;2023-07-30T08:30:57;4.05;;;3.30;;
8297;SDS011;4187;42.778;23.242;2023-07-30T08:33:25;6.18;;;3.50;;
8297;SDS011;4187;42.778;23.242;2023-07-30T08:35:54;3.58;;;3.28;;
8297;SDS011;4187;42.778;23.242;2023-07-30T08:38:21;3.83;;;3.42;;
8297;SDS011;4187;42.778;23.242;2023-07-30T08:40:47;4.90;;;3.80;;
8297;SDS011;4187;42.778;23.242;2023-07-30T08:43:14;5.32;;;2.92;;
8297;SDS011;4187;42.778;23.242;2023-07-30T08:45:40;3.45;;;3.15;;
8297;SDS011;4187;42.778;23.242;2023-07-30T08:48:08;6.03;;;3.67;;
8297;SDS011;4187;42.778;23.242;2023-07-30T08:50:35;3.47;;;3.17;;
8297;SDS011;4187;42.778;23.242;2023-07-30T08:53:03;3.88;;;3.58;;
8297;SDS011;4187;42.778;23.242;2023-07-30T08:55:32;3.97;;;3.38;;
8297;SDS011;4187;42.778;23.242;2023-07-30T08:57:59;3.80;;;3.10;;
8297;SDS011;4187;42.778;23.242;2023-07-30T09:00:27;3.67;;;3.00;;
8297;SDS011;4187;42.778;23.242;2023-07-30T09:02:58;3.40;;;3.10;;
8297;SDS011;4187;42.778;23.242;2023-07-30T09:05:26;3.88;;;3.40;;
8297;SDS011;4187;42.778;23.242;2023-07-30T09:07:54;3.58;;;3.28;;
8297;SDS011;4187;42.778;23.242;2023-07-30T09:10:21;4.55;;;3.20;;
8297;SDS011;4187;42.778;23.242;2023-07-30T09:12:51;4.90;;;3.30;;
8297;SDS011;4187;42.778;23.242;2023-07-30T09:15:28;3.22;;;2.92;;
8297;SDS011;4187;42.778;23.242;2023-07-30T09:17:55;6.75;;;3.30;;
8297;SDS011;4187;42.778;23.242;2023-07-30T09:20:21;3.63;;;3.03;;
8297;SDS011;4187;42.778;23.242;2023-07-30T09:22:49;3.47;;;3.17;;
8297;SDS011;4187;42.778;23.242;2023-07-30T09:25:17;5.40;;;3.50;;
8297;SDS011;4187;42.778;23.242;2023-07-30T09:27:47;5.70;;;3.47;;
8297;SDS011;4187;42.778;23.242;2023-07-30T09:30:13;4.70;;;3.20;;
8297;SDS011;4187;42.778;23.242;2023-07-30T09:32:40;5.20;;;3.35;;
8297;SDS011;4187;42.778;23.242;2023-07-30T09:35:07;5.50;;;3.22;;
8297;SDS011;4187;42.778;23.242;2023-07-30T09:37:35;4.85;;;3.10;;
8297;SDS011;4187;42.778;23.242;2023-07-30T09:40:04;5.03;;;3.40;;
8297;SDS011;4187;42.778;23.242;2023-07-30T09:42:31;6.20;;;3.00;;
8297;SDS011;4187;42.778;23.242;2023-07-30T09:45:00;5.90;;;3.38;;
8297;SDS011;4187;42.778;23.242;2023-07-30T09:47:27;4.80;;;3.42;;
8297;SDS011;4187;42.778;23.242;2023-07-30T09:49:56;4.18;;;3.10;;
8297;SDS011;4187;42.778;23.242;2023-07-30T09:52:23;6.88;;;3.53;;
8297;SDS011;4187;42.778;23.242;2023-07-30T09:54:49;3.20;;;2.92;;
8297;SDS011;4187;42.778;23.242;2023-07-30T09:57:19;3.45;;;3.15;;
8297;SDS011;4187;42.778;23.242;2023-07-30T09:59:45;3.50;;;3.20;;
8297;SDS011;4187;42.778;23.242;2023-07-30T10:02:12;4.03;;;3.72;;
8297;SDS011;4187;42.778;23.242;2023-07-30T10:04:41;4.65;;;3.15;;
8297;SDS011;4187;42.778;23.242;2023-07-30T10:07:10;4.18;;;3.50;;
8297;SDS011;4187;42.778;23.242;2023-07-30T10:09:39;3.67;;;3.38;;
8297;SDS011;4187;42.778;23.242;2023-07-30T10:12:08;4.68;;;3.08;;
8297;SDS011;4187;42.778;23.242;2023-07-30T10:14:37;4.22;;;3.00;;
8297;SDS011;4187;42.778;23.242;2023-07-30T10:17:04;3.80;;;3.42;;
8297;SDS011;4187;42.778;23.242;2023-07-30T10:19:31;4.05;;;3.63;;
8297;SDS011;4187;42.778;23.242;2023-07-30T10:22:18;5.72;;;3.00;;
8297;SDS011;4187;42.778;23.242;2023-07-30T10:24:55;4.15;;;3.60;;
8297;SDS011;4187;42.778;23.242;2023-07-30T10:27:22;4.32;;;3.40;;
8297;SDS011;4187;42.778;23.242;2023-07-30T10:29:51;3.35;;;3.05;;
8297;SDS011;4187;42.778;23.242;2023-07-30T10:32:37;4.03;;;3.13;;
8297;SDS011;4187;42.778;23.242;2023-07-30T10:35:04;3.55;;;3.25;;
8297;SDS011;4187;42.778;23.242;2023-07-30T10:37:31;6.15;;;3.38;;
8297;SDS011;4187;42.778;23.242;2023-07-30T10:39:57;5.53;;;3.50;;
8297;SDS011;4187;42.778;23.242;2023-07-30T10:42:24;4.05;;;3.53;;
8297;SDS011;4187;42.778;23.242;2023-07-30T10:45:00;4.07;;;3.70;;
8297;SDS011;4187;42.778;23.242;2023-07-30T10:47:27;5.00;;;3.50;;
8297;SDS011;4187;42.778;23.242;2023-07-30T10:49:53;4.07;;;3.35;;
8297;SDS011;4187;42.778;23.242;2023-07-30T10:52:23;4.72;;;3.70;;
8297;SDS011;4187;42.778;23.242;2023-07-30T10:54:50;4.30;;;3.28;;
8297;SDS011;4187;42.778;23.242;2023-07-30T10:57:29;3.70;;;3.40;;
8297;SDS011;4187;42.778;23.242;2023-07-30T10:59:55;4.03;;;3.40;;
8297;SDS011;4187;42.778;23.242;2023-07-30T11:02:24;3.83;;;3.40;;
8297;SDS011;4187;42.778;23.242;2023-07-30T11:04:50;3.75;;;3.35;;
8297;SDS011;4187;42.778;23.242;2023-07-30T11:07:17;4.00;;;3.60;;
8297;SDS011;4187;42.778;23.242;2023-07-30T11:09:44;4.30;;;3.60;;
8297;SDS011;4187;42.778;23.242;2023-07-30T11:12:10;7.22;;;3.47;;
8297;SDS011;4187;42.778;23.242;2023-07-30T11:14:37;4.13;;;3.80;;
8297;SDS011;4187;42.778;23.242;2023-07-30T11:17:03;3.97;;;3.15;;
8297;SDS011;4187;42.778;23.242;2023-07-30T11:19:31;6.15;;;3.70;;
8297;SDS011;4187;42.778;23.242;2023-07-30T11:21:59;4.95;;;3.47;;
8297;SDS011;4187;42.778;23.242;2023-07-30T11:24:33;3.78;;;3.47;;
8297;SDS011;4187;42.778;23.242;2023-07-30T11:27:00;4.93;;;3.70;;
8297;SDS011;4187;42.778;23.242;2023-07-30T11:29:27;3.83;;;3.30;;
8297;SDS011;4187;42.778;23.242;2023-07-30T11:31:56;4.22;;;3.83;;
8297;SDS011;4187;42.778;23.242;2023-07-30T11:34:23;4.43;;;3.50;;
8297;SDS011;4187;42.778;23.242;2023-07-30T11:36:51;5.97;;;3.42;;
8297;SDS011;4187;42.778;23.242;2023-07-30T11:39:18;3.58;;;3.28;;
8297;SDS011;4187;42.778;23.242;2023-07-30T11:41:45;3.75;;;3.45;;
8297;SDS011;4187;42.778;23.242;2023-07-30T11:46:53;4.00;;;3.33;;
8297;SDS011;4187;42.778;23.242;2023-07-30T11:49:20;4.60;;;3.75;;
8297;SDS011;4187;42.778;23.242;2023-07-30T11:51:47;5.68;;;3.50;;
8297;SDS011;4187;42.778;23.242;2023-07-30T11:54:19;4.93;;;3.42;;
8297;SDS011;4187;42.778;23.242;2023-07-30T11:56:47;4.93;;;3.75;;
8297;SDS011;4187;42.778;23.242;2023-07-30T11:59:20;5.20;;;3.90;;
8297;SDS011;4187;42.778;23.242;2023-07-30T12:01:46;3.40;;;3.05;;
8297;SDS011;4187;42.778;23.242;2023-07-30T12:04:13;5.38;;;4.10;;
8297;SDS011;4187;42.778;23.242;2023-07-30T12:06:40;4.30;;;3.67;;
8297;SDS011;4187;42.778;23.242;2023-07-30T12:09:10;4.47;;;3.85;;
8297;SDS011;4187;42.778;23.242;2023-07-30T12:11:45;4.55;;;4.15;;
8297;SDS011;4187;42.778;23.242;2023-07-30T12:14:12;4.20;;;3.80;;
8297;SDS011;4187;42.778;23.242;2023-07-30T12:16:38;5.68;;;3.78;;
8297;SDS011;4187;42.778;23.242;2023-07-30T12:19:05;6.07;;;4.00;;
8297;SDS011;4187;42.778;23.242;2023-07-30T12:21:32;4.00;;;3.63;;
8297;SDS011;4187;42.778;23.242;2023-07-30T12:23:58;4.00;;;3.70;;
8297;SDS011;4187;42.778;23.242;2023-07-30T12:26:26;5.97;;;3.45;;
8297;SDS011;4187;42.778;23.242;2023-07-30T12:28:54;5.15;;;3.55;;
8297;SDS011;4187;42.778;23.242;2023-07-30T12:31:20;4.88;;;3.72;;
8297;SDS011;4187;42.778;23.242;2023-07-30T12:33:47;4.47;;;3.90;;
8297;SDS011;4187;42.778;23.242;2023-07-30T12:36:13;6.63;;;4.00;;
8297;SDS011;4187;42.778;23.242;2023-07-30T12:38:40;5.25;;;4.10;;
8297;SDS011;4187;42.778;23.242;2023-07-30T12:41:06;5.78;;;4.10;;
8297;SDS011;4187;42.778;23.242;2023-07-30T12:43:33;5.13;;;4.18;;
8297;SDS011;4187;42.778;23.242;2023-07-30T12:46:01;4.55;;;3.83;;
8297;SDS011;4187;42.778;23.242;2023-07-30T12:48:28;3.70;;;3.40;;
8297;SDS011;4187;42.778;23.242;2023-07-30T12:50:54;4.97;;;3.63;;
8297;SDS011;4187;42.778;23.242;2023-07-30T12:53:21;5.68;;;3.42;;
8297;SDS011;4187;42.778;23.242;2023-07-30T12:55:47;4.00;;;3.60;;
8297;SDS011;4187;42.778;23.242;2023-07-30T12:58:14;4.53;;;4.00;;
8297;SDS011;4187;42.778;23.242;2023-07-30T13:00:40;4.65;;;3.75;;
8297;SDS011;4187;42.778;23.242;2023-07-30T13:03:08;6.57;;;4.30;;
8297;SDS011;4187;42.778;23.242;2023-07-30T13:05:35;7.57;;;4.00;;
8297;SDS011;4187;42.778;23.242;2023-07-30T13:08:01;5.07;;;3.97;;
8297;SDS011;4187;42.778;23.242;2023-07-30T13:10:28;4.68;;;3.38;;
8297;SDS011;4187;42.778;23.242;2023-07-30T13:12:54;7.95;;;3.92;;
8297;SDS011;4187;42.778;23.242;2023-07-30T13:15:21;5.75;;;4.00;;
8297;SDS011;4187;42.778;23.242;2023-07-30T13:17:47;6.88;;;3.58;;
8297;SDS011;4187;42.778;23.242;2023-07-30T13:20:15;5.38;;;3.58;;
8297;SDS011;4187;42.778;23.242;2023-07-30T13:22:41;4.50;;;4.03;;
8297;SDS011;4187;42.778;23.242;2023-07-30T13:25:08;5.28;;;3.50;;
8297;SDS011;4187;42.778;23.242;2023-07-30T13:27:35;4.00;;;3.53;;
8297;SDS011;4187;42.778;23.242;2023-07-30T13:30:01;5.13;;;3.47;;
8297;SDS011;4187;42.778;23.242;2023-07-30T13:32:28;4.70;;;4.03;;
8297;SDS011;4187;42.778;23.242;2023-07-30T13:34:54;5.85;;;3.83;;
8297;SDS011;4187;42.778;23.242;2023-07-30T13:37:22;4.00;;;3.58;;
8297;SDS011;4187;42.778;23.242;2023-07-30T13:39:49;8.07;;;4.15;;
8297;SDS011;4187;42.778;23.242;2023-07-30T13:42:16;7.63;;;4.07;;
8297;SDS011;4187;42.778;23.242;2023-07-30T13:44:43;4.47;;;3.70;;
8297;SDS011;4187;42.778;23.242;2023-07-30T13:47:10;4.20;;;3.78;;
8297;SDS011;4187;42.778;23.242;2023-07-30T13:49:36;4.50;;;3.90;;
8297;SDS011;4187;42.778;23.242;2023-07-30T13:52:03;3.90;;;3.60;;
8297;SDS011;4187;42.778;23.242;2023-07-30T13:54:31;4.22;;;3.90;;
8297;SDS011;4187;42.778;23.242;2023-07-30T13:56:57;5.88;;;3.60;;
8297;SDS011;4187;42.778;23.242;2023-07-30T13:59:24;4.82;;;4.03;;
8297;SDS011;4187;42.778;23.242;2023-07-30T14:01:51;4.50;;;3.85;;
8297;SDS011;4187;42.778;23.242;2023-07-30T14:04:17;4.53;;;3.65;;
8297;SDS011;4187;42.778;23.242;2023-07-30T14:06:44;5.05;;;3.65;;
8297;SDS011;4187;42.778;23.242;2023-07-30T14:09:10;5.53;;;3.70;;
8297;SDS011;4187;42.778;23.242;2023-07-30T14:11:38;5.65;;;3.83;;
8297;SDS011;4187;42.778;23.242;2023-07-30T14:14:08;5.55;;;4.07;;
8297;SDS011;4187;42.778;23.242;2023-07-30T14:16:34;4.93;;;3.85;;
8297;SDS011;4187;42.778;23.242;2023-07-30T14:19:01;4.10;;;3.75;;
8297;SDS011;4187;42.778;23.242;2023-07-30T14:21:27;5.20;;;3.97;;
8297;SDS011;4187;42.778;23.242;2023-07-30T14:23:54;4.47;;;3.70;;
8297;SDS011;4187;42.778;23.242;2023-07-30T14:26:20;4.40;;;3.38;;
8297;SDS011;4187;42.778;23.242;2023-07-30T14:28:48;4.07;;;3.78;;
8297;SDS011;4187;42.778;23.242;2023-07-30T14:31:15;4.15;;;3.78;;
8297;SDS011;4187;42.778;23.242;2023-07-30T14:33:41;4.93;;;4.43;;
8297;SDS011;4187;42.778;23.242;2023-07-30T14:36:08;5.10;;;4.50;;
8297;SDS011;4187;42.778;23.242;2023-07-30T14:38:36;3.78;;;3.30;;
8297;SDS011;4187;42.778;23.242;2023-07-30T14:41:03;5.10;;;3.78;;
8297;SDS011;4187;42.778;23.242;2023-07-30T14:43:30;4.25;;;3.95;;
8297;SDS011;4187;42.778;23.242;2023-07-30T14:45:58;3.97;;;3.63;;
8297;SDS011;4187;42.778;23.242;2023-07-30T14:48:25;4.05;;;3.70;;
8297;SDS011;4187;42.778;23.242;2023-07-30T14:50:52;4.03;;;3.72;;
8297;SDS011;4187;42.778;23.242;2023-07-30T14:53:20;5.53;;;3.92;;
8297;SDS011;4187;42.778;23.242;2023-07-30T14:55:47;5.30;;;3.45;;
8297;SDS011;4187;42.778;23.242;2023-07-30T14:58:13;4.72;;;4.07;;
8297;SDS011;4187;42.778;23.242;2023-07-30T15:00:40;3.60;;;3.30;;
8297;SDS011;4187;42.778;23.242;2023-07-30T15:03:10;4.43;;;4.07;;